createdAt,value
2022-12-05T00:24:40.420Z,77.92
2022-12-05T00:29:32.009Z,77.77
2022-12-05T00:34:23.824Z,77.88
2022-12-05T00:39:15.454Z,78.26
2022-12-05T00:44:07.788Z,78.12
2022-12-05T00:49:01.124Z,77.78
2022-12-05T00:53:52.840Z,77.60
2022-12-05T00:58:44.976Z,78.33
2022-12-05T01:03:36.654Z,78.68
2022-12-05T01:08:28.769Z,78.31
2022-12-05T01:13:20.650Z,77.96
2022-12-05T01:18:12.294Z,77.96
2022-12-05T01:23:03.860Z,77.93
2022-12-05T01:27:55.508Z,77.57
2022-12-05T01:32:47.117Z,78.20
2022-12-05T01:37:38.734Z,77.80
2022-12-05T01:42:30.415Z,77.59
2022-12-05T01:47:25.099Z,77.82
2022-12-05T01:52:22.849Z,77.17
2022-12-05T01:57:15.490Z,77.28
2022-12-05T02:02:08.970Z,77.71
2022-12-05T02:07:00.631Z,78.41
2022-12-05T02:11:55.646Z,77.76
2022-12-05T02:17:02.543Z,79.35
2022-12-05T02:22:25.172Z,78.75
2022-12-05T02:27:30.455Z,79.01
2022-12-05T02:33:20.621Z,79.44
2022-12-05T02:38:36.417Z,78.99
2022-12-05T02:43:41.209Z,78.99
2022-12-05T02:48:35.205Z,78.52
2022-12-05T02:53:29.645Z,77.39
2022-12-05T02:58:38.886Z,78.22
2022-12-05T03:03:30.905Z,79.72
2022-12-05T03:08:28.382Z,79.56
2022-12-05T03:13:27.210Z,79.26
2022-12-05T03:18:41.953Z,80.24
2022-12-05T03:23:38.073Z,80.26
2022-12-05T03:28:35.570Z,80.93
2022-12-05T03:33:34.986Z,79.93
2022-12-05T03:38:51.550Z,79.81
2022-12-05T03:43:59.033Z,80.72
2022-12-05T03:48:59.783Z,81.14
2022-12-05T03:53:59.655Z,81.91
2022-12-05T03:59:05.282Z,81.70
2022-12-05T04:04:03.292Z,81.56
2022-12-05T04:09:02.011Z,81.89
2022-12-05T04:14:00.785Z,82.93
2022-12-05T04:19:28.166Z,81.74
2022-12-05T04:24:50.397Z,81.89
2022-12-05T04:30:10.556Z,82.19
2022-12-05T04:35:09.901Z,81.59
2022-12-05T04:40:14.919Z,80.85
2022-12-05T04:45:10.130Z,81.73
2022-12-05T04:50:03.430Z,81.60
2022-12-05T04:55:07.637Z,81.78
2022-12-05T04:59:59.563Z,81.65
2022-12-05T05:04:53.096Z,80.68
2022-12-05T05:09:45.146Z,81.45
2022-12-05T05:14:36.788Z,81.05
2022-12-05T05:19:28.481Z,80.56
2022-12-05T05:24:21.842Z,80.08
2022-12-05T05:29:14.724Z,80.21
2022-12-05T05:34:09.754Z,79.93
2022-12-05T05:39:03.692Z,80.99
2022-12-05T05:43:56.562Z,80.42
2022-12-05T05:48:48.671Z,80.23
2022-12-05T05:53:40.842Z,80.39
2022-12-05T05:58:32.554Z,79.90
2022-12-05T06:03:24.168Z,80.25
2022-12-05T06:08:15.867Z,79.87
2022-12-05T06:13:07.479Z,79.45
2022-12-05T06:17:59.165Z,79.64
2022-12-05T06:22:50.712Z,79.62
2022-12-05T06:27:42.217Z,80.27
2022-12-05T06:32:33.821Z,79.58
2022-12-05T06:37:25.385Z,79.60
2022-12-05T06:42:16.990Z,79.67
2022-12-05T06:47:08.548Z,79.33
2022-12-05T06:52:00.219Z,79.82
2022-12-05T06:56:51.821Z,79.48
2022-12-05T07:01:43.874Z,79.63
2022-12-05T07:06:35.938Z,79.75
2022-12-05T07:11:27.910Z,80.44
2022-12-05T07:16:19.542Z,79.63
2022-12-05T07:21:14.328Z,79.57
2022-12-05T07:26:15.010Z,79.56
2022-12-05T07:31:09.656Z,79.53
2022-12-05T07:36:02.954Z,79.76
2022-12-05T07:40:54.931Z,78.98
2022-12-05T07:45:46.826Z,78.82
2022-12-05T07:50:38.449Z,78.86
2022-12-05T07:55:30.220Z,78.22
2022-12-05T08:00:21.991Z,78.25
2022-12-05T08:05:13.542Z,77.30
2022-12-05T08:10:05.834Z,76.98
2022-12-05T08:14:57.481Z,77.26
2022-12-05T08:19:49.082Z,77.43
2022-12-05T08:24:40.698Z,76.84
2022-12-05T08:29:32.814Z,77.15
2022-12-05T08:34:24.462Z,77.52
2022-12-05T08:39:19.541Z,77.51
2022-12-05T08:44:16.102Z,78.17
2022-12-05T08:49:08.123Z,77.35
2022-12-05T08:54:02.606Z,76.80
2022-12-05T08:59:01.212Z,76.45
2022-12-05T09:03:53.498Z,76.99
2022-12-05T09:08:45.391Z,76.84
2022-12-05T09:13:37.583Z,77.17
2022-12-05T09:18:29.375Z,77.27
2022-12-05T09:23:20.988Z,77.44
2022-12-05T09:28:12.555Z,76.53
2022-12-05T09:33:04.084Z,76.16
2022-12-05T09:37:57.070Z,76.72
2022-12-05T09:42:54.407Z,75.76
2022-12-05T09:47:54.095Z,75.39
2022-12-05T09:53:10.373Z,75.35
2022-12-05T09:58:03.820Z,74.09
2022-12-05T10:03:04.348Z,73.82
2022-12-05T10:08:12.566Z,74.88
2022-12-05T10:13:44.328Z,73.48
2022-12-05T10:18:38.763Z,73.03
2022-12-05T10:23:58.046Z,72.29
2022-12-05T10:29:20.856Z,72.68
2022-12-05T10:34:23.513Z,72.54
2022-12-05T10:39:15.103Z,72.74
2022-12-05T10:44:06.778Z,72.78
2022-12-05T10:48:59.526Z,73.13
2022-12-05T10:53:52.343Z,73.29
2022-12-05T10:58:58.067Z,73.55
2022-12-05T11:03:58.463Z,73.44
2022-12-05T11:09:24.944Z,73.23
2022-12-05T11:14:25.968Z,72.53
2022-12-05T11:19:30.667Z,72.05
2022-12-05T11:24:29.058Z,72.79
2022-12-05T11:29:38.381Z,73.35
2022-12-05T11:34:38.053Z,74.07
2022-12-05T11:39:29.735Z,74.89
2022-12-05T11:44:44.267Z,74.50
2022-12-05T11:49:38.765Z,74.83
2022-12-05T11:55:04.341Z,75.16
2022-12-05T12:00:05.498Z,74.44
2022-12-05T12:05:15.750Z,73.31
2022-12-05T12:10:42.928Z,73.83
2022-12-05T12:15:40.746Z,73.77
2022-12-05T12:20:52.498Z,73.25
2022-12-05T12:26:06.365Z,72.91
2022-12-05T12:31:13.304Z,73.47
2022-12-05T12:36:08.247Z,71.88
2022-12-05T12:41:22.668Z,72.38
2022-12-05T12:46:46.445Z,72.20
2022-12-05T12:51:49.592Z,71.67
2022-12-05T12:56:50.403Z,73.90
2022-12-05T13:01:53.480Z,71.62
2022-12-05T13:07:25.587Z,72.66
2022-12-05T13:12:23.313Z,71.97
2022-12-05T13:17:19.988Z,72.23
2022-12-05T13:22:14.032Z,73.25
2022-12-05T13:27:09.183Z,73.86
2022-12-05T13:32:03.986Z,73.61
2022-12-05T13:37:17.598Z,72.85
2022-12-05T13:42:24.476Z,72.91
2022-12-05T13:47:48.206Z,73.22
2022-12-05T13:52:54.354Z,74.17
2022-12-05T13:57:49.218Z,74.54
2022-12-05T14:02:47.812Z,74.67
2022-12-05T14:07:44.027Z,74.16
2022-12-05T14:12:48.919Z,75.25
2022-12-05T14:17:44.995Z,75.14
2022-12-05T14:22:48.597Z,75.14
2022-12-05T14:28:35.340Z,74.50
2022-12-05T14:33:26.974Z,74.42
2022-12-05T14:38:30.065Z,74.39
2022-12-05T14:43:33.138Z,74.72
2022-12-05T14:48:33.778Z,74.85
2022-12-05T14:53:32.392Z,74.91
2022-12-05T14:58:45.673Z,75.22
2022-12-05T15:03:58.536Z,75.74
2022-12-05T15:08:55.270Z,75.45
2022-12-05T15:13:47.280Z,74.96
2022-12-05T15:18:44.428Z,75.13
2022-12-05T15:23:43.910Z,75.65
2022-12-05T15:28:35.533Z,76.58
2022-12-05T15:51:40.099Z,76.19
2022-12-05T15:56:55.648Z,76.09
2022-12-05T16:01:52.490Z,76.20
2022-12-05T16:13:17.611Z,77.37
2022-12-05T16:18:24.552Z,76.96
2022-12-05T16:23:45.440Z,77.01
2022-12-05T16:28:37.167Z,77.32
2022-12-05T16:33:30.626Z,77.89
2022-12-05T16:38:32.121Z,77.41
2022-12-05T16:43:23.637Z,77.77
2022-12-05T16:48:31.769Z,77.30
2022-12-05T16:53:32.623Z,76.65
2022-12-05T16:58:27.551Z,76.78
2022-12-05T17:15:59.283Z,77.98
2022-12-05T17:26:30.951Z,77.58
2022-12-05T17:38:04.219Z,77.88
2022-12-05T17:42:55.997Z,78.19
2022-12-05T17:47:47.613Z,77.49
2022-12-05T17:52:39.344Z,77.32
2022-12-05T17:57:30.906Z,77.44
2022-12-05T18:02:22.590Z,78.08
2022-12-05T18:07:14.204Z,77.79
2022-12-05T18:12:05.933Z,78.81
2022-12-05T18:16:57.981Z,78.03
2022-12-05T18:21:49.838Z,78.26
2022-12-05T18:26:41.547Z,77.98
2022-12-05T18:31:33.215Z,78.21
2022-12-05T18:36:24.849Z,78.50
2022-12-05T18:53:30.447Z,78.00
2022-12-05T18:58:23.904Z,77.97
2022-12-05T19:03:21.723Z,78.36
2022-12-05T19:08:13.294Z,78.16
2022-12-05T19:13:04.911Z,77.20
2022-12-05T19:17:56.469Z,78.19
2022-12-05T19:22:48.001Z,78.89
2022-12-05T19:27:39.559Z,78.32
2022-12-05T19:32:35.401Z,78.98
2022-12-05T19:37:30.782Z,78.27
2022-12-05T19:42:22.330Z,78.17
2022-12-05T19:47:13.951Z,78.65
2022-12-05T19:52:05.602Z,78.43
2022-12-05T19:57:00.488Z,78.81
2022-12-05T20:01:52.425Z,77.90
2022-12-05T20:06:48.942Z,78.23
2022-12-05T20:11:43.865Z,78.59
2022-12-05T20:16:36.631Z,78.72
2022-12-05T20:21:31.176Z,78.09
2022-12-05T20:26:25.552Z,78.59
2022-12-05T20:31:20.168Z,78.07
2022-12-05T20:36:14.365Z,78.74
2022-12-05T20:41:08.620Z,78.48
2022-12-05T20:46:10.131Z,78.75
2022-12-05T20:51:26.321Z,78.63
2022-12-05T20:56:25.251Z,78.16
2022-12-05T21:01:18.661Z,78.43
2022-12-05T21:06:13.589Z,78.05
2022-12-05T21:11:06.261Z,78.17
2022-12-05T21:16:01.084Z,78.42
2022-12-05T21:21:00.943Z,78.59
2022-12-05T21:25:53.973Z,77.91
2022-12-05T21:30:46.257Z,78.08
2022-12-05T21:35:38.558Z,77.67
2022-12-05T21:40:30.262Z,78.11
2022-12-05T21:45:22.517Z,77.40
2022-12-05T21:50:14.094Z,77.74
2022-12-05T21:55:07.717Z,78.00
2022-12-05T21:59:59.753Z,78.21
2022-12-05T22:04:51.460Z,77.48
2022-12-05T22:09:43.081Z,77.50
2022-12-05T22:14:35.415Z,78.08
2022-12-05T22:19:28.711Z,78.87
2022-12-05T22:24:20.381Z,78.65
2022-12-05T22:29:12.020Z,78.50
2022-12-05T22:34:03.603Z,79.31
2022-12-05T22:38:55.189Z,78.75
2022-12-05T22:43:48.556Z,78.42
2022-12-05T22:48:40.156Z,79.78
2022-12-05T22:53:32.090Z,78.90
2022-12-05T22:58:23.635Z,78.07
2022-12-05T23:03:15.256Z,78.74
2022-12-05T23:08:07.489Z,78.25
2022-12-05T23:12:59.109Z,78.47
2022-12-05T23:17:50.692Z,78.55
2022-12-05T23:22:42.362Z,78.24
2022-12-05T23:27:34.763Z,79.02
2022-12-05T23:32:26.377Z,79.19
2022-12-05T23:37:18.122Z,79.18
2022-12-05T23:42:15.069Z,78.85
2022-12-05T23:47:07.209Z,79.13
2022-12-05T23:51:58.879Z,79.12
2022-12-05T23:56:50.496Z,79.09
